Terminal Aerodrome Forecast
Issued by NWS

Home | Current Version | Previous Version | Text Only | Print | Product List | Glossary On
Versions: 1 2 3 4 5 6 7 8 9 10 11 12 13
344
FTUS46 KMTR 161734
TAFSJC
TAF
KSJC 161734Z 1618/1718 33012G22KT P6SM FEW100 WS020/36040KT
     FM162100 33016G26KT P6SM SKC WS020/36040KT
     FM170200 31009KT P6SM SKC=

USA.gov is the U.S. government's official web portal to all federal, state and local government web resources and services.